Grand Rapids, MI (49544)

5:16 PM EDT on September 01, 2015 (GMT -0400)
Walker, MI | | Change Station
CLOSE
Current Station
Personal Weather Station
Location: Walker, MI
Elevation: 738 ft
Nearby Weather Stations

Elev 738 ft 43.00 °N, 85.76 °W | Updated 11 minutes ago

Partly Cloudy
Partly Cloudy
94.8 °F
Feels Like 108 °F
N
1.1
Wind Variable Wind from SSW

Today
High -- | Low -- °F
--% Chance of Precip.
Yesterday
High -- | Low -- °F
Precip. -- in
7:07 AM 8:18 PM
Waning Gibbous, 86% visible
Pressure 30.00 in
Visibility 10.0 miles
Clouds Scattered Clouds 3600 ft
Scattered Clouds 7000 ft
Heat Index 108 °F
Dew Point 76 °F
Humidity 54%
Rainfall 0.00 in
Snow Depth Not available.
UV 3 out of 12
Pollen 10.60 out of 12
Air Quality Not available.
Flu Activity Not available.
METAR KGRR 012053Z 22009KT 10SM SCT036 SCT070 31/22 A3001 RMK AO2 SLP158 T03060217 56014
Pressure 30.00 in
Visibility 10.0 miles
Clouds Scattered Clouds 3600 ft
Scattered Clouds 7000 ft
Heat Index 108 °F
Dew Point 76 °F
Humidity 54%
Rainfall 0.00 in
Snow Depth Not available.
UV 3 out of 12
Pollen 10.60 out of 12
Air Quality Not available.
Flu Activity Not available.
METAR KGRR 012053Z 22009KT 10SM SCT036 SCT070 31/22 A3001 RMK AO2 SLP158 T03060217 56014

10-Day Weather Forecast

×

Almanac

Astronomy

Sep. 01, 2015 Rise Set
Actual Time
Civil Twilight
Nautical Twilight
Astronomical Twilight
Moon
Length of Visible Light
Length of Day
Tomorrow will be .
, % of the Moon is Illuminated

Today's Extremes

State Highs State Lows

Community

WunderPhotos

Upload Photos

1,851,617 photos uploaded!

WunderBlogs® & News

Nearby

Air Quality

  Air Quality AQ Index Pollutant
Not available.

Snow Depth

Station Depth Elevation

Earthquake Activity

City Distance Mag. Time & Date
Minimum magnitude displayed is 2.5.

Coastal Water Temperatures

Place Temperature

Stations

Nearby Weather Stations

Station Location Temp. Windchill Dew Point Humidity Wind Precip. Elev Updated Type